createdAt,value
2019-03-26T00:01:59.414Z,22.04
2019-03-26T00:04:06.094Z,22.08
2019-03-26T00:06:02.720Z,22.11
2019-03-26T00:08:04.327Z,22.15
2019-03-26T00:10:05.924Z,22.19
2019-03-26T00:12:07.495Z,22.22
2019-03-26T00:14:09.080Z,22.26
2019-03-26T00:16:10.674Z,22.29
2019-03-26T00:18:12.284Z,22.29
2019-03-26T00:20:13.875Z,22.30
2019-03-26T00:22:15.491Z,22.30
2019-03-26T00:24:17.127Z,22.30
2019-03-26T00:26:18.750Z,22.30
2019-03-26T00:28:20.355Z,22.29
2019-03-26T00:30:21.929Z,22.29
2019-03-26T00:32:23.827Z,22.27
2019-03-26T00:34:25.220Z,22.26
2019-03-26T00:36:26.832Z,22.24
2019-03-26T00:38:28.490Z,22.22
2019-03-26T00:40:30.096Z,22.19
2019-03-26T00:42:31.710Z,22.14
2019-03-26T00:44:33.319Z,22.13
2019-03-26T00:46:34.944Z,22.09
2019-03-26T00:48:36.528Z,22.06
2019-03-26T00:50:38.112Z,22.02
2019-03-26T00:52:39.723Z,21.98
2019-03-26T00:54:41.316Z,21.68
2019-03-26T00:56:42.895Z,21.91
2019-03-26T00:58:44.502Z,21.86
2019-03-26T01:00:46.112Z,21.81
2019-03-26T01:02:47.686Z,21.51
2019-03-26T01:04:49.283Z,21.74
2019-03-26T01:06:50.879Z,21.73
2019-03-26T01:08:52.534Z,21.69
2019-03-26T01:10:54.133Z,21.68
2019-03-26T01:12:55.743Z,21.68
2019-03-26T01:14:57.334Z,21.66
2019-03-26T01:16:58.945Z,21.69
2019-03-26T01:19:00.592Z,21.70
2019-03-26T01:21:02.201Z,21.68
2019-03-26T01:23:03.781Z,21.73
2019-03-26T01:25:05.371Z,21.87
2019-03-26T01:27:06.962Z,21.93
2019-03-26T01:29:08.550Z,21.98
2019-03-26T01:31:10.142Z,22.05
2019-03-26T01:33:11.764Z,22.05
2019-03-26T01:35:13.348Z,22.03
2019-03-26T01:37:15.088Z,22.06
2019-03-26T01:39:16.676Z,22.10
2019-03-26T01:41:18.280Z,22.13
2019-03-26T01:43:19.932Z,22.14
2019-03-26T01:45:21.539Z,22.13
2019-03-26T01:47:23.148Z,22.13
2019-03-26T01:49:24.793Z,22.14
2019-03-26T01:51:26.407Z,22.20
2019-03-26T01:53:27.992Z,22.21
2019-03-26T01:55:29.566Z,22.23
2019-03-26T01:57:31.176Z,22.22
2019-03-26T01:59:32.800Z,22.20
2019-03-26T02:01:34.416Z,22.20
2019-03-26T02:03:36.007Z,22.19
2019-03-26T02:05:37.588Z,22.13
2019-03-26T02:07:39.196Z,22.15
2019-03-26T02:09:40.856Z,22.12
2019-03-26T02:11:42.447Z,22.06
2019-03-26T02:13:44.032Z,22.05
2019-03-26T02:15:45.620Z,22.04
2019-03-26T02:17:47.214Z,22.03
2019-03-26T02:19:48.790Z,21.99
2019-03-26T02:21:50.372Z,21.96
2019-03-26T02:23:52.001Z,21.93
2019-03-26T02:25:53.607Z,21.90
2019-03-26T02:27:55.218Z,21.87
2019-03-26T02:29:56.803Z,21.84
2019-03-26T02:31:58.444Z,21.81
2019-03-26T02:34:00.068Z,21.77
2019-03-26T02:36:01.714Z,21.76
2019-03-26T02:38:03.333Z,21.75
2019-03-26T02:40:04.920Z,21.74
2019-03-26T02:42:06.545Z,21.74
2019-03-26T02:44:08.173Z,21.74
2019-03-26T02:46:09.798Z,21.75
2019-03-26T02:48:11.421Z,21.78
2019-03-26T02:50:13.012Z,21.80
2019-03-26T02:52:14.643Z,21.84
2019-03-26T02:54:16.261Z,21.88
2019-03-26T02:56:17.866Z,21.92
2019-03-26T02:58:19.483Z,21.96
2019-03-26T03:00:21.075Z,21.98
2019-03-26T03:02:22.745Z,22.03
2019-03-26T03:04:24.342Z,22.10
2019-03-26T03:06:25.930Z,22.14
2019-03-26T03:08:27.515Z,22.18
2019-03-26T03:10:29.102Z,22.22
2019-03-26T03:12:30.727Z,22.27
2019-03-26T03:14:32.339Z,22.27
2019-03-26T03:16:34.007Z,22.29
2019-03-26T03:18:35.629Z,22.31
2019-03-26T03:20:37.227Z,22.29
2019-03-26T03:22:38.867Z,22.27
2019-03-26T03:24:40.472Z,22.23
2019-03-26T03:26:42.086Z,22.19
2019-03-26T03:28:43.750Z,22.16
2019-03-26T03:30:45.337Z,22.13
2019-03-26T03:32:46.993Z,22.10
2019-03-26T03:34:48.590Z,22.05
2019-03-26T03:36:50.185Z,22.01
2019-03-26T03:38:51.821Z,21.98
2019-03-26T03:40:53.437Z,21.93
2019-03-26T03:42:55.390Z,21.89
2019-03-26T03:44:57.003Z,21.85
2019-03-26T03:46:58.630Z,21.82
2019-03-26T03:49:00.261Z,21.79
2019-03-26T03:51:01.852Z,21.73
2019-03-26T03:53:03.436Z,21.69
2019-03-26T03:55:05.067Z,21.64
2019-03-26T03:57:06.679Z,21.61
2019-03-26T03:59:08.329Z,21.58
2019-03-26T04:01:09.969Z,21.55
2019-03-26T04:03:11.624Z,21.57
2019-03-26T04:05:13.243Z,21.59
2019-03-26T04:07:14.893Z,21.65
2019-03-26T04:09:16.507Z,21.68
2019-03-26T04:11:18.157Z,21.70
2019-03-26T04:13:19.748Z,21.72
2019-03-26T04:15:21.346Z,21.76
2019-03-26T04:17:22.932Z,21.85
2019-03-26T04:19:24.556Z,21.90
2019-03-26T04:21:26.211Z,21.99
2019-03-26T04:23:27.821Z,22.05
2019-03-26T04:25:29.431Z,21.85
2019-03-26T04:27:31.080Z,22.17
2019-03-26T04:29:32.694Z,22.24
2019-03-26T04:31:34.320Z,22.20
2019-03-26T04:33:35.921Z,22.38
2019-03-26T04:35:37.528Z,22.40
2019-03-26T04:37:39.157Z,22.41
2019-03-26T04:39:40.730Z,22.44
2019-03-26T04:41:42.348Z,22.42
2019-03-26T04:43:43.950Z,22.40
2019-03-26T04:45:45.522Z,22.38
2019-03-26T04:47:47.127Z,22.32
2019-03-26T04:49:48.736Z,22.29
2019-03-26T04:51:50.363Z,22.22
2019-03-26T04:53:51.948Z,22.16
2019-03-26T04:55:53.518Z,22.10
2019-03-26T04:57:55.125Z,22.03
2019-03-26T04:59:56.712Z,21.98
2019-03-26T05:01:58.320Z,21.94
2019-03-26T05:03:59.927Z,21.89
2019-03-26T05:06:01.531Z,21.83
2019-03-26T05:08:03.128Z,21.76
2019-03-26T05:10:04.717Z,21.75
2019-03-26T05:12:06.327Z,21.74
2019-03-26T05:14:07.934Z,21.69
2019-03-26T05:16:09.544Z,21.66
2019-03-26T05:18:11.157Z,21.63
2019-03-26T05:20:12.734Z,21.55
2019-03-26T05:22:23.642Z,21.50
2019-03-26T05:24:16.015Z,21.44
2019-03-26T05:26:17.640Z,21.40
2019-03-26T05:28:19.244Z,21.38
2019-03-26T05:30:20.851Z,21.36
2019-03-26T05:32:22.500Z,21.37
2019-03-26T05:34:25.106Z,21.40
2019-03-26T05:36:26.709Z,21.46
2019-03-26T05:38:28.340Z,21.53
2019-03-26T05:40:29.922Z,21.64
2019-03-26T05:42:31.508Z,21.73
2019-03-26T05:44:33.155Z,21.81
2019-03-26T05:46:34.756Z,21.95
2019-03-26T05:48:36.380Z,22.05
2019-03-26T05:50:37.979Z,22.09
2019-03-26T05:52:39.577Z,22.19
2019-03-26T05:54:41.199Z,22.26
2019-03-26T05:56:42.783Z,22.30
2019-03-26T05:58:44.411Z,22.34
2019-03-26T06:00:46.021Z,22.37
2019-03-26T06:02:47.632Z,22.40
2019-03-26T06:04:49.279Z,22.46
2019-03-26T06:07:03.954Z,22.47
2019-03-26T06:08:52.576Z,22.47
2019-03-26T06:10:54.160Z,22.47
2019-03-26T06:12:55.896Z,22.51
2019-03-26T06:14:57.540Z,22.48
2019-03-26T06:16:59.131Z,22.42
2019-03-26T06:19:00.748Z,22.38
2019-03-26T06:21:02.327Z,22.32
2019-03-26T06:23:03.969Z,22.29
2019-03-26T06:25:05.557Z,22.22
2019-03-26T06:27:07.163Z,22.13
2019-03-26T06:29:08.808Z,22.08
2019-03-26T06:31:10.412Z,22.05
2019-03-26T06:33:12.062Z,21.99
2019-03-26T06:35:13.634Z,21.97
2019-03-26T06:37:18.101Z,21.91
2019-03-26T06:39:16.892Z,21.81
2019-03-26T06:41:18.477Z,21.72
2019-03-26T06:43:20.083Z,21.70
2019-03-26T06:45:21.762Z,21.66
2019-03-26T06:47:23.376Z,21.62
2019-03-26T06:49:24.986Z,21.59
2019-03-26T06:51:26.695Z,21.53
2019-03-26T06:53:29.010Z,21.49
2019-03-26T06:55:30.604Z,21.45
2019-03-26T06:57:35.749Z,21.45
2019-03-26T06:59:33.883Z,21.44
2019-03-26T07:01:35.505Z,21.44
2019-03-26T07:03:37.082Z,21.47
2019-03-26T07:05:38.690Z,21.50
2019-03-26T07:07:40.312Z,21.57
2019-03-26T07:09:41.901Z,21.77
2019-03-26T07:11:43.543Z,21.72
2019-03-26T07:13:45.130Z,21.74
2019-03-26T07:15:46.716Z,21.86
2019-03-26T07:17:48.356Z,22.02
2019-03-26T07:19:49.945Z,22.13
2019-03-26T07:21:51.542Z,22.23
2019-03-26T07:23:53.159Z,22.31
2019-03-26T07:25:54.779Z,22.39
2019-03-26T07:27:56.553Z,22.47
2019-03-26T07:29:58.172Z,22.50
2019-03-26T07:31:59.783Z,22.51
2019-03-26T07:34:01.396Z,22.59
2019-03-26T07:36:03.012Z,22.61
2019-03-26T07:38:04.660Z,22.63
2019-03-26T07:40:06.248Z,22.63
2019-03-26T07:42:07.862Z,22.61
2019-03-26T07:44:09.483Z,22.59
2019-03-26T07:46:11.102Z,22.56
2019-03-26T07:48:12.716Z,22.53
2019-03-26T07:50:14.364Z,22.44
2019-03-26T07:52:15.978Z,22.39
2019-03-26T07:54:17.639Z,22.34
2019-03-26T07:56:19.249Z,22.37
2019-03-26T07:58:20.860Z,22.45
2019-03-26T08:00:22.512Z,22.38
2019-03-26T08:02:24.132Z,22.18
2019-03-26T08:04:25.769Z,22.05
2019-03-26T08:06:27.360Z,21.95
2019-03-26T08:08:28.974Z,21.85
2019-03-26T08:10:30.572Z,21.77
2019-03-26T08:12:32.974Z,21.71
2019-03-26T08:14:33.883Z,21.69
2019-03-26T08:16:35.501Z,21.64
2019-03-26T08:18:37.134Z,21.57
2019-03-26T08:20:38.788Z,21.53
2019-03-26T08:22:40.389Z,21.48
2019-03-26T08:24:42.000Z,21.54
2019-03-26T08:26:43.611Z,21.54
2019-03-26T08:28:45.197Z,21.49
2019-03-26T08:30:49.894Z,21.44
2019-03-26T08:32:48.456Z,21.38
2019-03-26T08:34:50.064Z,21.51
2019-03-26T08:36:51.654Z,21.54
2019-03-26T08:38:53.265Z,21.54
2019-03-26T08:40:54.916Z,21.57
2019-03-26T08:42:56.671Z,21.63
2019-03-26T08:44:58.280Z,21.69
2019-03-26T08:46:59.890Z,21.78
2019-03-26T08:49:01.504Z,21.84
2019-03-26T08:51:03.160Z,21.92
2019-03-26T08:53:04.773Z,21.99
2019-03-26T08:55:06.380Z,22.05
2019-03-26T08:57:08.023Z,22.13
2019-03-26T08:59:09.632Z,22.17
2019-03-26T09:01:11.244Z,22.20
2019-03-26T09:03:12.896Z,22.22
2019-03-26T09:05:14.523Z,22.26
2019-03-26T09:07:16.152Z,22.24
2019-03-26T09:09:17.740Z,22.25
2019-03-26T09:11:19.348Z,22.25
2019-03-26T09:13:20.951Z,22.22
2019-03-26T09:15:22.529Z,22.23
2019-03-26T09:17:24.122Z,22.08
2019-03-26T09:19:25.743Z,20.01
2019-03-26T09:21:27.332Z,19.11
2019-03-26T09:23:28.916Z,18.49
2019-03-26T09:25:30.515Z,18.39
2019-03-26T09:27:32.131Z,18.26
2019-03-26T09:29:33.725Z,18.02
2019-03-26T09:31:35.309Z,17.92
2019-03-26T09:33:36.916Z,19.40
2019-03-26T09:35:38.525Z,20.29
2019-03-26T09:37:40.120Z,20.76
2019-03-26T09:39:41.744Z,21.02
2019-03-26T09:41:43.329Z,21.14
2019-03-26T09:43:44.939Z,21.27
2019-03-26T09:45:46.522Z,21.29
2019-03-26T09:47:48.167Z,21.29
2019-03-26T09:49:49.793Z,21.27
2019-03-26T09:51:51.438Z,21.26
2019-03-26T09:53:53.038Z,21.27
2019-03-26T09:55:54.633Z,21.23
2019-03-26T09:57:56.459Z,21.26
2019-03-26T09:59:58.084Z,21.06
2019-03-26T10:01:59.694Z,21.32
2019-03-26T10:04:01.320Z,21.34
2019-03-26T10:06:04.307Z,21.34
2019-03-26T10:08:05.896Z,21.33
2019-03-26T10:10:07.535Z,21.34
2019-03-26T10:12:09.133Z,21.35
2019-03-26T10:14:10.732Z,21.36
2019-03-26T10:16:12.345Z,21.37
2019-03-26T10:18:13.929Z,21.36
2019-03-26T10:20:15.548Z,21.34
2019-03-26T10:22:19.897Z,21.32
2019-03-26T10:24:18.800Z,21.31
2019-03-26T10:26:20.408Z,21.30
2019-03-26T10:28:22.055Z,21.31
2019-03-26T10:30:24.876Z,21.29
2019-03-26T10:32:25.306Z,21.28
2019-03-26T10:34:26.948Z,21.29
2019-03-26T10:36:28.543Z,21.29
2019-03-26T10:38:30.161Z,21.28
2019-03-26T10:40:31.744Z,21.28
2019-03-26T10:42:33.450Z,21.28
2019-03-26T10:44:35.008Z,21.27
2019-03-26T10:46:36.614Z,21.28
2019-03-26T10:48:38.202Z,21.28
2019-03-26T10:50:39.783Z,21.27
2019-03-26T10:52:41.403Z,21.18
2019-03-26T10:54:43.011Z,21.30
2019-03-26T10:56:44.636Z,21.33
2019-03-26T10:58:46.310Z,21.33
2019-03-26T11:00:49.053Z,21.34
2019-03-26T11:02:53.910Z,21.36
2019-03-26T11:04:52.268Z,21.40
2019-03-26T11:06:53.871Z,21.46
2019-03-26T11:08:55.471Z,21.68
2019-03-26T11:10:57.060Z,21.79
2019-03-26T11:12:58.662Z,21.91
2019-03-26T11:15:00.387Z,22.00
2019-03-26T11:17:01.883Z,21.97
2019-03-26T11:19:03.473Z,21.94
2019-03-26T11:21:05.061Z,21.92
2019-03-26T11:23:06.694Z,21.77
2019-03-26T11:25:08.335Z,21.70
2019-03-26T11:27:09.929Z,21.64
2019-03-26T11:29:11.532Z,21.58
2019-03-26T11:31:13.120Z,21.53
2019-03-26T11:33:14.708Z,21.52
2019-03-26T11:35:16.294Z,21.52
2019-03-26T11:37:17.866Z,21.47
2019-03-26T11:39:31.852Z,21.47
2019-03-26T11:41:21.120Z,21.48
2019-03-26T11:43:22.704Z,21.45
2019-03-26T11:45:24.328Z,21.54
2019-03-26T11:47:25.916Z,21.60
2019-03-26T11:49:27.532Z,21.42
2019-03-26T11:51:29.116Z,21.52
2019-03-26T11:53:30.701Z,21.49
2019-03-26T11:55:32.336Z,21.45
2019-03-26T11:57:33.919Z,21.43
2019-03-26T11:59:35.486Z,21.42
2019-03-26T12:01:37.074Z,21.40
2019-03-26T12:03:38.648Z,21.40
2019-03-26T12:05:40.268Z,21.39
2019-03-26T12:07:43.075Z,21.40
2019-03-26T12:09:46.647Z,21.39
2019-03-26T12:11:45.124Z,21.43
2019-03-26T12:13:46.736Z,21.46
2019-03-26T12:15:48.374Z,21.48
2019-03-26T12:17:49.980Z,21.48
2019-03-26T12:19:51.587Z,21.44
2019-03-26T12:21:53.172Z,21.44
2019-03-26T12:23:54.757Z,21.43
2019-03-26T12:25:56.400Z,21.42
2019-03-26T12:27:57.990Z,21.41
2019-03-26T12:29:59.645Z,21.42
2019-03-26T12:32:01.234Z,21.40
2019-03-26T12:34:02.837Z,21.11
2019-03-26T12:36:04.474Z,21.41
2019-03-26T12:38:06.150Z,21.40
2019-03-26T12:40:07.941Z,21.41
2019-03-26T12:42:09.560Z,21.43
2019-03-26T12:44:11.153Z,21.44
2019-03-26T12:46:12.736Z,21.45
2019-03-26T12:48:14.335Z,21.46
2019-03-26T12:50:15.917Z,21.37
2019-03-26T12:52:17.502Z,21.30
2019-03-26T12:54:19.117Z,21.28
2019-03-26T12:56:20.731Z,21.29
2019-03-26T12:58:31.829Z,21.45
2019-03-26T13:00:23.972Z,21.65
2019-03-26T13:02:25.579Z,21.61
2019-03-26T13:04:27.169Z,21.50
2019-03-26T13:06:28.774Z,21.44
2019-03-26T13:08:30.476Z,21.41
2019-03-26T13:10:32.065Z,21.40
2019-03-26T13:12:33.676Z,21.39
2019-03-26T13:14:35.284Z,21.37
2019-03-26T13:16:36.924Z,21.40
2019-03-26T13:18:38.584Z,21.54
2019-03-26T13:20:40.171Z,21.54
2019-03-26T13:22:41.792Z,21.46
2019-03-26T13:24:43.391Z,21.41
2019-03-26T13:26:44.980Z,21.37
2019-03-26T13:28:46.593Z,21.36
2019-03-26T13:30:48.210Z,21.35
2019-03-26T13:32:49.842Z,21.31
2019-03-26T13:34:51.452Z,21.31
2019-03-26T13:36:53.062Z,21.32
2019-03-26T13:38:54.665Z,21.28
2019-03-26T13:40:56.261Z,21.25
2019-03-26T13:42:57.847Z,21.25
2019-03-26T13:44:59.428Z,21.21
2019-03-26T13:47:01.016Z,21.21
2019-03-26T13:49:02.622Z,21.21
2019-03-26T13:51:04.212Z,21.20
2019-03-26T13:53:05.815Z,21.18
2019-03-26T13:55:07.641Z,21.17
2019-03-26T13:57:09.246Z,21.18
2019-03-26T13:59:11.838Z,21.35
2019-03-26T14:01:13.443Z,21.39
2019-03-26T14:03:15.068Z,21.26
2019-03-26T14:05:17.868Z,20.93
2019-03-26T14:07:19.454Z,21.18
2019-03-26T14:09:21.038Z,21.15
2019-03-26T14:11:22.620Z,21.15
2019-03-26T14:13:24.200Z,21.12
2019-03-26T14:15:25.766Z,21.13
2019-03-26T14:17:27.391Z,21.13
2019-03-26T14:19:28.980Z,21.12
2019-03-26T14:21:30.568Z,21.12
2019-03-26T14:23:32.192Z,21.13
2019-03-26T14:25:33.772Z,21.14
2019-03-26T14:27:35.423Z,21.16
2019-03-26T14:29:37.038Z,21.15
2019-03-26T14:31:38.868Z,20.96
2019-03-26T14:33:50.362Z,21.10
2019-03-26T14:35:51.954Z,21.09
2019-03-26T14:37:53.592Z,21.07
2019-03-26T14:39:55.202Z,21.03
2019-03-26T14:41:56.787Z,20.96
2019-03-26T14:43:58.376Z,20.96
2019-03-26T14:46:00.100Z,20.94
2019-03-26T14:48:01.666Z,20.94
2019-03-26T14:50:03.268Z,20.93
2019-03-26T14:52:04.856Z,20.93
2019-03-26T14:54:06.480Z,20.93
2019-03-26T14:56:08.105Z,20.94
2019-03-26T14:58:09.873Z,20.95
2019-03-26T15:00:11.457Z,20.92
2019-03-26T15:02:13.040Z,20.97
2019-03-26T15:04:14.626Z,20.87
2019-03-26T15:06:16.213Z,21.01
2019-03-26T15:08:17.796Z,21.01
2019-03-26T15:10:19.413Z,21.03
2019-03-26T15:12:21.062Z,21.01
2019-03-26T15:14:22.644Z,21.00
2019-03-26T15:16:24.227Z,20.99
2019-03-26T15:18:25.806Z,20.99
2019-03-26T15:20:27.424Z,21.02
2019-03-26T15:22:29.010Z,21.01
2019-03-26T15:24:30.586Z,21.04
2019-03-26T15:26:32.168Z,21.04
2019-03-26T15:28:33.752Z,21.03
2019-03-26T15:30:35.358Z,21.01
2019-03-26T15:32:36.948Z,21.02
2019-03-26T15:34:38.564Z,21.04
2019-03-26T15:36:40.156Z,21.17
2019-03-26T15:38:41.749Z,21.36
2019-03-26T15:40:43.400Z,21.47
2019-03-26T15:42:44.988Z,21.49
2019-03-26T15:44:46.664Z,21.54
2019-03-26T15:46:48.230Z,21.54
2019-03-26T15:48:49.815Z,21.57
2019-03-26T15:50:51.422Z,21.59
2019-03-26T15:52:53.005Z,21.60
2019-03-26T15:54:54.632Z,21.62
2019-03-26T15:56:56.207Z,21.64
2019-03-26T15:58:57.787Z,21.63
2019-03-26T16:00:59.408Z,21.61
2019-03-26T16:03:00.996Z,21.64
2019-03-26T16:05:02.616Z,21.65
2019-03-26T16:07:04.186Z,21.68
2019-03-26T16:09:05.768Z,22.17
2019-03-26T16:11:08.500Z,22.46
2019-03-26T16:13:10.108Z,22.46
2019-03-26T16:15:11.783Z,22.56
2019-03-26T16:17:13.504Z,22.64
2019-03-26T16:19:17.905Z,22.73
2019-03-26T16:21:16.752Z,22.89
2019-03-26T16:23:18.340Z,22.97
2019-03-26T16:25:19.924Z,23.07
2019-03-26T16:27:21.509Z,23.18
2019-03-26T16:29:25.936Z,23.23
2019-03-26T16:31:24.728Z,23.30
2019-03-26T16:33:26.313Z,23.38
2019-03-26T16:35:27.895Z,23.36
2019-03-26T16:37:29.466Z,23.29
2019-03-26T16:39:31.082Z,23.30
2019-03-26T16:41:32.691Z,23.28
2019-03-26T16:43:34.281Z,23.22
2019-03-26T16:45:35.907Z,23.18
2019-03-26T16:47:37.499Z,23.16
2019-03-26T16:49:39.084Z,23.16
2019-03-26T16:51:40.697Z,23.15
2019-03-26T16:53:42.281Z,23.50
2019-03-26T16:55:44.047Z,23.61
2019-03-26T16:57:45.626Z,23.39
2019-03-26T16:59:47.248Z,23.58
2019-03-26T17:01:48.852Z,23.59
2019-03-26T17:03:50.527Z,23.57
2019-03-26T17:05:52.209Z,23.69
2019-03-26T17:07:53.898Z,23.09
2019-03-26T17:09:55.484Z,23.30
2019-03-26T17:12:03.087Z,23.21
2019-03-26T17:13:58.732Z,23.25
2019-03-26T17:16:00.317Z,23.24
2019-03-26T17:18:01.912Z,23.23
2019-03-26T17:20:03.508Z,23.15
2019-03-26T17:22:05.100Z,23.31
2019-03-26T17:24:06.674Z,23.47
2019-03-26T17:26:08.256Z,23.38
2019-03-26T17:28:09.841Z,23.21
2019-03-26T17:30:11.420Z,23.05
2019-03-26T17:32:13.012Z,22.93
2019-03-26T17:34:14.586Z,22.89
2019-03-26T17:36:16.234Z,22.86
2019-03-26T17:38:17.826Z,22.88
2019-03-26T17:40:19.420Z,22.86
2019-03-26T17:42:21.008Z,22.88
2019-03-26T17:44:22.596Z,22.89
2019-03-26T17:46:24.180Z,22.87
2019-03-26T17:48:25.800Z,22.84
2019-03-26T17:50:27.392Z,22.75
2019-03-26T17:52:28.980Z,22.63
2019-03-26T17:54:30.567Z,22.50
2019-03-26T17:56:32.153Z,22.43
2019-03-26T17:58:33.776Z,22.36
2019-03-26T18:00:35.360Z,22.31
2019-03-26T18:02:36.963Z,22.25
2019-03-26T18:04:38.544Z,22.30
2019-03-26T18:06:40.128Z,22.32
2019-03-26T18:08:41.733Z,22.38
2019-03-26T18:10:43.320Z,22.47
2019-03-26T18:12:46.645Z,22.46
2019-03-26T18:14:46.556Z,22.56
2019-03-26T18:16:48.144Z,22.66
2019-03-26T18:18:49.724Z,22.71
2019-03-26T18:20:51.364Z,22.74
2019-03-26T18:22:52.954Z,22.79
2019-03-26T18:24:54.541Z,22.72
2019-03-26T18:26:56.111Z,22.86
2019-03-26T18:28:57.732Z,22.97
2019-03-26T18:30:59.308Z,23.63
2019-03-26T18:33:00.892Z,23.75
2019-03-26T18:35:02.496Z,23.73
2019-03-26T18:37:04.089Z,23.71
2019-03-26T18:39:05.688Z,23.73
2019-03-26T18:41:07.282Z,23.69
2019-03-26T18:43:09.036Z,23.69
2019-03-26T18:45:10.632Z,23.75
2019-03-26T18:47:12.220Z,23.75
2019-03-26T18:49:13.942Z,23.58
2019-03-26T18:51:15.542Z,23.68
2019-03-26T18:53:17.136Z,23.75
2019-03-26T18:55:18.755Z,23.74
2019-03-26T18:57:20.339Z,23.75
2019-03-26T18:59:21.932Z,23.73
2019-03-26T19:01:23.506Z,23.70
2019-03-26T19:03:25.140Z,23.70
2019-03-26T19:05:26.715Z,23.64
2019-03-26T19:07:28.351Z,23.60
2019-03-26T19:09:29.936Z,23.59
2019-03-26T19:11:31.559Z,23.60
2019-03-26T19:13:33.185Z,23.56
2019-03-26T19:15:34.770Z,23.56
2019-03-26T19:17:36.347Z,23.55
2019-03-26T19:19:37.923Z,23.51
2019-03-26T19:21:39.498Z,23.50
2019-03-26T19:23:41.120Z,23.83
2019-03-26T19:25:42.716Z,23.92
2019-03-26T19:27:44.412Z,23.52
2019-03-26T19:29:46.074Z,23.22
2019-03-26T19:31:47.680Z,23.12
2019-03-26T19:33:49.975Z,23.07
2019-03-26T19:35:51.609Z,23.00
2019-03-26T19:37:53.205Z,22.96
2019-03-26T19:39:54.856Z,22.90
2019-03-26T19:41:56.465Z,22.83
2019-03-26T19:43:58.068Z,22.81
2019-03-26T19:45:59.700Z,22.78
2019-03-26T19:48:01.280Z,22.77
2019-03-26T19:50:02.865Z,22.75
2019-03-26T19:52:04.435Z,22.74
2019-03-26T19:54:06.023Z,22.77
2019-03-26T19:56:07.592Z,22.83
2019-03-26T19:58:09.216Z,22.91
2019-03-26T20:00:10.807Z,22.99
2019-03-26T20:02:12.392Z,23.06
2019-03-26T20:04:14.029Z,23.10
2019-03-26T20:06:15.609Z,23.11
2019-03-26T20:08:17.196Z,23.13
2019-03-26T20:10:18.953Z,23.16
2019-03-26T20:12:20.615Z,23.20
2019-03-26T20:14:22.404Z,23.14
2019-03-26T20:16:27.100Z,23.24
2019-03-26T20:18:25.624Z,23.27
2019-03-26T20:20:27.835Z,23.32
2019-03-26T20:22:29.424Z,23.34
2019-03-26T20:24:31.032Z,23.34
2019-03-26T20:26:32.655Z,23.34
2019-03-26T20:28:34.277Z,23.35
2019-03-26T20:30:35.897Z,23.34
2019-03-26T20:32:37.529Z,23.35
2019-03-26T20:34:39.111Z,23.33
2019-03-26T20:36:40.728Z,23.34
2019-03-26T20:38:42.316Z,23.36
2019-03-26T20:40:43.922Z,23.36
2019-03-26T20:42:45.505Z,23.22
2019-03-26T20:44:47.088Z,23.35
2019-03-26T20:46:48.732Z,23.34
2019-03-26T20:48:50.394Z,23.32
2019-03-26T20:50:52.244Z,23.32
2019-03-26T20:52:53.901Z,23.31
2019-03-26T20:54:55.611Z,23.06
2019-03-26T20:56:57.252Z,23.31
2019-03-26T20:58:58.876Z,23.30
2019-03-26T21:01:00.507Z,23.29
2019-03-26T21:03:02.078Z,23.16
2019-03-26T21:05:03.669Z,23.43
2019-03-26T21:07:05.288Z,23.67
2019-03-26T21:09:06.876Z,23.74
2019-03-26T21:11:08.491Z,23.73
2019-03-26T21:13:10.071Z,23.60
2019-03-26T21:15:11.642Z,23.61
2019-03-26T21:17:13.260Z,23.66
2019-03-26T21:19:14.844Z,23.66
2019-03-26T21:21:16.533Z,23.68
2019-03-26T21:23:18.119Z,23.63
2019-03-26T21:25:19.699Z,23.61
2019-03-26T21:27:21.284Z,23.64
2019-03-26T21:29:22.854Z,23.62
2019-03-26T21:31:24.901Z,23.56
2019-03-26T21:33:26.492Z,23.53
2019-03-26T21:35:29.078Z,23.51
2019-03-26T21:37:29.744Z,23.72
2019-03-26T21:39:31.353Z,23.85
2019-03-26T21:41:32.988Z,23.60
2019-03-26T21:43:34.569Z,23.52
2019-03-26T21:45:36.178Z,23.53
2019-03-26T21:47:37.768Z,23.53
2019-03-26T21:49:39.352Z,23.52
2019-03-26T21:51:40.959Z,23.52
2019-03-26T21:53:42.544Z,23.51
2019-03-26T21:55:44.132Z,23.49
2019-03-26T21:57:45.715Z,23.43
2019-03-26T21:59:47.283Z,23.45
2019-03-26T22:01:48.869Z,23.54
2019-03-26T22:03:50.459Z,23.55
2019-03-26T22:05:52.040Z,23.58
2019-03-26T22:07:53.624Z,23.73
2019-03-26T22:09:55.203Z,23.64
2019-03-26T22:11:56.774Z,23.57
2019-03-26T22:13:58.342Z,23.90
2019-03-26T22:15:59.928Z,24.33
2019-03-26T22:18:01.573Z,23.93
2019-03-26T22:20:03.176Z,23.72
2019-03-26T22:22:04.772Z,23.66
2019-03-26T22:24:06.407Z,23.59
2019-03-26T22:26:07.987Z,24.01
2019-03-26T22:28:09.573Z,23.60
2019-03-26T22:30:11.141Z,23.61
2019-03-26T22:32:12.768Z,23.53
2019-03-26T22:34:14.353Z,23.49
2019-03-26T22:36:15.935Z,23.76
2019-03-26T22:38:17.520Z,23.64
2019-03-26T22:40:20.129Z,23.51
2019-03-26T22:42:21.752Z,23.47
2019-03-26T22:44:31.176Z,23.43
2019-03-26T22:46:24.972Z,23.43
2019-03-26T22:48:26.556Z,23.39
2019-03-26T22:50:28.127Z,23.46
2019-03-26T22:52:29.708Z,23.68
2019-03-26T22:54:31.292Z,23.84
2019-03-26T22:56:32.880Z,22.98
2019-03-26T22:58:34.471Z,19.91
2019-03-26T23:00:36.043Z,18.87
2019-03-26T23:02:37.628Z,18.16
2019-03-26T23:04:39.232Z,19.90
2019-03-26T23:06:40.876Z,20.95
2019-03-26T23:08:42.481Z,21.40
2019-03-26T23:10:44.068Z,21.66
2019-03-26T23:12:45.652Z,21.76
2019-03-26T23:14:47.236Z,21.90
2019-03-26T23:16:48.850Z,21.98
2019-03-26T23:18:50.432Z,22.08
2019-03-26T23:20:52.016Z,22.14
2019-03-26T23:22:53.608Z,22.27
2019-03-26T23:24:55.204Z,22.32
2019-03-26T23:26:56.818Z,22.40
2019-03-26T23:28:58.401Z,22.45
2019-03-26T23:30:59.982Z,22.48
2019-03-26T23:33:01.860Z,22.52
2019-03-26T23:35:03.444Z,22.56
2019-03-26T23:37:05.073Z,22.65
2019-03-26T23:39:06.656Z,22.60
2019-03-26T23:41:08.223Z,22.58
2019-03-26T23:43:09.812Z,22.54
2019-03-26T23:45:11.396Z,22.49
2019-03-26T23:47:13.002Z,22.51
2019-03-26T23:49:14.575Z,22.49
2019-03-26T23:51:16.161Z,22.46
2019-03-26T23:53:17.734Z,22.45
2019-03-26T23:55:19.316Z,22.44
2019-03-26T23:57:20.933Z,22.41
2019-03-26T23:59:22.516Z,22.41
